Terminal Aerodrome Forecast
Issued by NWS Charleston, WV

Current Version | Previous Version | Text Only | Print | Product List | Glossary Off
Versions: 1 2 3 4 5 6 7 8 9 10 11 12 13 14 15 16 17 18 19 20 21 22 23 24 25 26 27 28 29 30 31

207
FTUS41 KRLX 271812 AAA
TAFBKW
TAF AMD
KBKW 271812Z 2718/2818 28007KT P6SM VCTS SCT040CB SCT070
      TEMPO 2718/2721 4SM TSRA BKN020CB
     FM280100 VRB02KT P6SM SCT050 BKN070
     FM280600 00000KT 5SM BR BKN050
     FM281200 00000KT P6SM VCTS BKN050CB
     FM281400 00000KT 4SM TSRA BR SCT015 OVC030CB=

USA.gov is the U.S. government's official web portal to all federal, state and local government web resources and services.